sensor_id;sensor_type;location;lat;lon;timestamp;pressure;altitude;pressure_sealevel;temperature;humidity
22283;BME280;11310;51.528;21.204;2023-02-24T00:02:12;99254.13;;;4.64;100.00
22283;BME280;11310;51.528;21.204;2023-02-24T00:04:42;99257.56;;;4.64;100.00
22283;BME280;11310;51.528;21.204;2023-02-24T00:07:11;99253.38;;;4.60;100.00
22283;BME280;11310;51.528;21.204;2023-02-24T00:09:40;99247.50;;;4.55;100.00
22283;BME280;11310;51.528;21.204;2023-02-24T00:12:12;99248.47;;;4.53;100.00
22283;BME280;11310;51.528;21.204;2023-02-24T00:14:43;99243.44;;;4.48;100.00
22283;BME280;11310;51.528;21.204;2023-02-24T00:17:11;99238.34;;;4.45;100.00
22283;BME280;11310;51.528;21.204;2023-02-24T00:19:43;99235.00;;;4.42;100.00
22283;BME280;11310;51.528;21.204;2023-02-24T00:22:12;99229.81;;;4.42;100.00
22283;BME280;11310;51.528;21.204;2023-02-24T00:24:41;99229.81;;;4.42;100.00
22283;BME280;11310;51.528;21.204;2023-02-24T00:27:09;99227.22;;;4.42;100.00
22283;BME280;11310;51.528;21.204;2023-02-24T00:29:39;99229.03;;;4.38;100.00
22283;BME280;11310;51.528;21.204;2023-02-24T00:32:08;99217.03;;;4.36;100.00
22283;BME280;11310;51.528;21.204;2023-02-24T00:34:40;99205.91;;;4.32;100.00
22283;BME280;11310;51.528;21.204;2023-02-24T00:37:10;99207.63;;;4.32;100.00
22283;BME280;11310;51.528;21.204;2023-02-24T00:39:44;99199.97;;;4.29;100.00
22283;BME280;11310;51.528;21.204;2023-02-24T00:42:13;99204.22;;;4.31;100.00
22283;BME280;11310;51.528;21.204;2023-02-24T00:44:44;99205.03;;;4.32;100.00
22283;BME280;11310;51.528;21.204;2023-02-24T00:47:13;99205.16;;;4.29;100.00
22283;BME280;11310;51.528;21.204;2023-02-24T00:49:43;99203.47;;;4.28;100.00
22283;BME280;11310;51.528;21.204;2023-02-24T00:52:15;99196.56;;;4.27;100.00
22283;BME280;11310;51.528;21.204;2023-02-24T00:54:45;99191.38;;;4.27;100.00
22283;BME280;11310;51.528;21.204;2023-02-24T00:57:14;99192.31;;;4.24;100.00
22283;BME280;11310;51.528;21.204;2023-02-24T00:59:45;99189.78;;;4.23;100.00
22283;BME280;11310;51.528;21.204;2023-02-24T01:02:16;99188.22;;;4.19;100.00
22283;BME280;11310;51.528;21.204;2023-02-24T01:04:44;99186.56;;;4.16;100.00
22283;BME280;11310;51.528;21.204;2023-02-24T01:07:14;99186.63;;;4.15;100.00
22283;BME280;11310;51.528;21.204;2023-02-24T01:09:43;99177.06;;;4.15;100.00
22283;BME280;11310;51.528;21.204;2023-02-24T01:12:11;99177.88;;;4.17;100.00
22283;BME280;11310;51.528;21.204;2023-02-24T01:15:01;99174.28;;;4.21;100.00
22283;BME280;11310;51.528;21.204;2023-02-24T01:17:31;99166.28;;;4.27;100.00
22283;BME280;11310;51.528;21.204;2023-02-24T01:20:03;99165.22;;;4.33;100.00
22283;BME280;11310;51.528;21.204;2023-02-24T01:22:45;99157.25;;;4.37;100.00
22283;BME280;11310;51.528;21.204;2023-02-24T01:25:15;99154.53;;;4.42;100.00
22283;BME280;11310;51.528;21.204;2023-02-24T01:27:46;99156.09;;;4.46;100.00
22283;BME280;11310;51.528;21.204;2023-02-24T01:30:16;99154.28;;;4.48;100.00
22283;BME280;11310;51.528;21.204;2023-02-24T01:32:45;99150.78;;;4.49;100.00
22283;BME280;11310;51.528;21.204;2023-02-24T01:35:15;99149.88;;;4.50;100.00
22283;BME280;11310;51.528;21.204;2023-02-24T01:37:45;99141.13;;;4.52;100.00
22283;BME280;11310;51.528;21.204;2023-02-24T01:40:14;99141.03;;;4.55;100.00
22283;BME280;11310;51.528;21.204;2023-02-24T01:42:48;99139.41;;;4.53;100.00
22283;BME280;11310;51.528;21.204;2023-02-24T01:45:23;99133.09;;;4.60;100.00
22283;BME280;11310;51.528;21.204;2023-02-24T01:47:52;99135.47;;;4.66;100.00
22283;BME280;11310;51.528;21.204;2023-02-24T01:50:24;99130.13;;;4.69;100.00
22283;BME280;11310;51.528;21.204;2023-02-24T01:52:57;99135.22;;;4.72;100.00
22283;BME280;11310;51.528;21.204;2023-02-24T01:55:31;99131.63;;;4.76;100.00
22283;BME280;11310;51.528;21.204;2023-02-24T01:58:05;99121.91;;;4.81;100.00
22283;BME280;11310;51.528;21.204;2023-02-24T02:00:35;99112.31;;;4.83;100.00
22283;BME280;11310;51.528;21.204;2023-02-24T02:03:19;99125.06;;;4.89;100.00
22283;BME280;11310;51.528;21.204;2023-02-24T02:05:51;99116.34;;;4.90;100.00
22283;BME280;11310;51.528;21.204;2023-02-24T02:08:23;99113.66;;;4.93;100.00
22283;BME280;11310;51.528;21.204;2023-02-24T02:10:53;99112.63;;;4.97;100.00
22283;BME280;11310;51.528;21.204;2023-02-24T02:13:26;99106.34;;;5.02;100.00
22283;BME280;11310;51.528;21.204;2023-02-24T02:16:04;99110.47;;;5.08;100.00
22283;BME280;11310;51.528;21.204;2023-02-24T02:18:43;99100.72;;;5.13;100.00
22283;BME280;11310;51.528;21.204;2023-02-24T02:21:39;99096.19;;;5.18;100.00
22283;BME280;11310;51.528;21.204;2023-02-24T02:24:33;99102.19;;;5.20;100.00
22283;BME280;11310;51.528;21.204;2023-02-24T02:27:21;99082.28;;;5.19;100.00
22283;BME280;11310;51.528;21.204;2023-02-24T02:30:17;99092.69;;;5.19;100.00
22283;BME280;11310;51.528;21.204;2023-02-24T02:33:14;99089.31;;;5.17;100.00
22283;BME280;11310;51.528;21.204;2023-02-24T02:35:56;99084.00;;;5.20;100.00
22283;BME280;11310;51.528;21.204;2023-02-24T02:38:33;99089.19;;;5.20;100.00
22283;BME280;11310;51.528;21.204;2023-02-24T02:41:11;99073.50;;;5.21;100.00
22283;BME280;11310;51.528;21.204;2023-02-24T02:43:48;99076.88;;;5.25;100.00
22283;BME280;11310;51.528;21.204;2023-02-24T02:46:25;99070.69;;;5.27;100.00
22283;BME280;11310;51.528;21.204;2023-02-24T02:49:05;99068.03;;;5.29;100.00
22283;BME280;11310;51.528;21.204;2023-02-24T02:51:41;99069.72;;;5.30;100.00
22283;BME280;11310;51.528;21.204;2023-02-24T02:54:17;99062.75;;;5.30;100.00
22283;BME280;11310;51.528;21.204;2023-02-24T02:56:50;99064.38;;;5.33;100.00
22283;BME280;11310;51.528;21.204;2023-02-24T02:59:25;99065.19;;;5.35;100.00
22283;BME280;11310;51.528;21.204;2023-02-24T03:01:57;99057.31;;;5.36;100.00
22283;BME280;11310;51.528;21.204;2023-02-24T03:04:40;99054.53;;;5.41;100.00
22283;BME280;11310;51.528;21.204;2023-02-24T03:07:13;99061.25;;;5.46;100.00
22283;BME280;11310;51.528;21.204;2023-02-24T03:09:47;99051.53;;;5.50;100.00
22283;BME280;11310;51.528;21.204;2023-02-24T03:12:20;99044.41;;;5.55;100.00
22283;BME280;11310;51.528;21.204;2023-02-24T03:14:53;99047.66;;;5.60;100.00
22283;BME280;11310;51.528;21.204;2023-02-24T03:17:28;99047.41;;;5.66;100.00
22283;BME280;11310;51.528;21.204;2023-02-24T03:20:01;99041.03;;;5.73;100.00
22283;BME280;11310;51.528;21.204;2023-02-24T03:22:45;99045.94;;;5.80;100.00
22283;BME280;11310;51.528;21.204;2023-02-24T03:25:20;99039.50;;;5.89;100.00
22283;BME280;11310;51.528;21.204;2023-02-24T03:27:54;99030.78;;;5.90;100.00
22283;BME280;11310;51.528;21.204;2023-02-24T03:30:34;99033.19;;;5.94;100.00
22283;BME280;11310;51.528;21.204;2023-02-24T03:33:11;99029.47;;;6.00;100.00
22283;BME280;11310;51.528;21.204;2023-02-24T03:35:44;99027.72;;;6.00;100.00
22283;BME280;11310;51.528;21.204;2023-02-24T03:38:14;99029.47;;;6.00;100.00
22283;BME280;11310;51.528;21.204;2023-02-24T03:40:43;99021.66;;;6.00;100.00
22283;BME280;11310;51.528;21.204;2023-02-24T03:43:23;99020.69;;;6.02;100.00
22283;BME280;11310;51.528;21.204;2023-02-24T03:45:55;99015.47;;;6.02;100.00
22283;BME280;11310;51.528;21.204;2023-02-24T03:48:24;99014.66;;;6.02;100.00
22283;BME280;11310;51.528;21.204;2023-02-24T03:50:56;99006.91;;;6.00;100.00
22283;BME280;11310;51.528;21.204;2023-02-24T03:53:53;99005.22;;;5.99;100.00
22283;BME280;11310;51.528;21.204;2023-02-24T03:56:28;99005.06;;;6.02;100.00
22283;BME280;11310;51.528;21.204;2023-02-24T03:59:13;99001.13;;;6.12;100.00
22283;BME280;11310;51.528;21.204;2023-02-24T04:01:53;99005.22;;;6.18;100.00
22283;BME280;11310;51.528;21.204;2023-02-24T04:04:37;98992.09;;;6.21;100.00
22283;BME280;11310;51.528;21.204;2023-02-24T04:07:20;98999.75;;;6.24;100.00
22283;BME280;11310;51.528;21.204;2023-02-24T04:10:02;98987.66;;;6.23;100.00
22283;BME280;11310;51.528;21.204;2023-02-24T04:12:42;98977.22;;;6.23;100.00
22283;BME280;11310;51.528;21.204;2023-02-24T04:15:18;98975.59;;;6.20;100.00
22283;BME280;11310;51.528;21.204;2023-02-24T04:17:50;98973.88;;;6.21;100.00
22283;BME280;11310;51.528;21.204;2023-02-24T04:20:25;98968.50;;;6.24;100.00
22283;BME280;11310;51.528;21.204;2023-02-24T04:23:01;98969.34;;;6.24;100.00
22283;BME280;11310;51.528;21.204;2023-02-24T04:25:32;98959.78;;;6.25;100.00
22283;BME280;11310;51.528;21.204;2023-02-24T04:28:01;98955.47;;;6.24;100.00
22283;BME280;11310;51.528;21.204;2023-02-24T04:30:39;98947.66;;;6.24;100.00
22283;BME280;11310;51.528;21.204;2023-02-24T04:33:11;98947.81;;;6.21;100.00
22283;BME280;11310;51.528;21.204;2023-02-24T04:35:40;98941.81;;;6.19;100.00
22283;BME280;11310;51.528;21.204;2023-02-24T04:38:11;98938.47;;;6.17;100.00
22283;BME280;11310;51.528;21.204;2023-02-24T04:40:41;98930.53;;;6.20;100.00
22283;BME280;11310;51.528;21.204;2023-02-24T04:43:10;98937.41;;;6.21;100.00
22283;BME280;11310;51.528;21.204;2023-02-24T04:45:39;98928.53;;;6.25;100.00
22283;BME280;11310;51.528;21.204;2023-02-24T04:48:08;98929.31;;;6.27;100.00
22283;BME280;11310;51.528;21.204;2023-02-24T04:50:40;98920.63;;;6.26;100.00
22283;BME280;11310;51.528;21.204;2023-02-24T04:53:11;98924.78;;;6.30;100.00
22283;BME280;11310;51.528;21.204;2023-02-24T04:55:43;98916.56;;;6.39;100.00
22283;BME280;11310;51.528;21.204;2023-02-24T04:58:16;98921.41;;;6.47;100.00
22283;BME280;11310;51.528;21.204;2023-02-24T05:00:48;98916.00;;;6.51;100.00
22283;BME280;11310;51.528;21.204;2023-02-24T05:03:20;98908.78;;;6.56;100.00
22283;BME280;11310;51.528;21.204;2023-02-24T05:05:56;98914.56;;;6.63;100.00
22283;BME280;11310;51.528;21.204;2023-02-24T05:08:27;98912.25;;;6.74;100.00
22283;BME280;11310;51.528;21.204;2023-02-24T05:10:58;98904.19;;;6.80;100.00
22283;BME280;11310;51.528;21.204;2023-02-24T05:13:31;98899.78;;;6.80;100.00
22283;BME280;11310;51.528;21.204;2023-02-24T05:16:05;98903.38;;;6.78;100.00
22283;BME280;11310;51.528;21.204;2023-02-24T05:18:34;98893.81;;;6.78;100.00
22283;BME280;11310;51.528;21.204;2023-02-24T05:21:06;98893.81;;;6.78;100.00
22283;BME280;11310;51.528;21.204;2023-02-24T05:23:53;98892.13;;;6.77;100.00
22283;BME280;11310;51.528;21.204;2023-02-24T05:26:23;98886.06;;;6.77;100.00
22283;BME280;11310;51.528;21.204;2023-02-24T05:28:54;98887.91;;;6.75;100.00
22283;BME280;11310;51.528;21.204;2023-02-24T05:31:28;98888.06;;;6.72;100.00
22283;BME280;11310;51.528;21.204;2023-02-24T05:34:00;98885.44;;;6.72;100.00
22283;BME280;11310;51.528;21.204;2023-02-24T05:36:31;98881.91;;;6.73;100.00
22283;BME280;11310;51.528;21.204;2023-02-24T05:39:00;98881.78;;;6.76;100.00
22283;BME280;11310;51.528;21.204;2023-02-24T05:41:36;98885.22;;;6.76;100.00
22283;BME280;11310;51.528;21.204;2023-02-24T05:44:10;98885.22;;;6.76;100.00
22283;BME280;11310;51.528;21.204;2023-02-24T05:46:40;98881.72;;;6.77;100.00
22283;BME280;11310;51.528;21.204;2023-02-24T05:49:12;98880.78;;;6.78;100.00
22283;BME280;11310;51.528;21.204;2023-02-24T05:51:41;98881.59;;;6.79;100.00
22283;BME280;11310;51.528;21.204;2023-02-24T05:54:23;98880.72;;;6.80;100.00
22283;BME280;11310;51.528;21.204;2023-02-24T05:56:53;98881.59;;;6.79;100.00
22283;BME280;11310;51.528;21.204;2023-02-24T05:59:23;98876.50;;;6.77;100.00
22283;BME280;11310;51.528;21.204;2023-02-24T06:01:51;98870.44;;;6.77;100.00
22283;BME280;11310;51.528;21.204;2023-02-24T06:04:20;98869.56;;;6.76;100.00
22283;BME280;11310;51.528;21.204;2023-02-24T06:07:07;98870.44;;;6.77;100.00
22283;BME280;11310;51.528;21.204;2023-02-24T06:09:40;98864.47;;;6.75;100.00
22283;BME280;11310;51.528;21.204;2023-02-24T06:12:12;98868.75;;;6.76;100.00
22283;BME280;11310;51.528;21.204;2023-02-24T06:14:42;98858.31;;;6.76;100.00
22283;BME280;11310;51.528;21.204;2023-02-24T06:17:11;98870.44;;;6.77;100.00
22283;BME280;11310;51.528;21.204;2023-02-24T06:19:41;98869.50;;;6.78;100.00
22283;BME280;11310;51.528;21.204;2023-02-24T06:22:12;98865.22;;;6.77;100.00
22283;BME280;11310;51.528;21.204;2023-02-24T06:24:41;98866.22;;;6.74;100.00
22283;BME280;11310;51.528;21.204;2023-02-24T06:27:13;98873.19;;;6.74;100.00
22283;BME280;11310;51.528;21.204;2023-02-24T06:29:45;98862.94;;;6.71;100.00
22283;BME280;11310;51.528;21.204;2023-02-24T06:32:16;98863.81;;;6.70;100.00
22283;BME280;11310;51.528;21.204;2023-02-24T06:34:45;98860.38;;;6.69;100.00
22283;BME280;11310;51.528;21.204;2023-02-24T06:37:14;98861.22;;;6.70;100.00
22283;BME280;11310;51.528;21.204;2023-02-24T06:39:44;98857.84;;;6.68;100.00
22283;BME280;11310;51.528;21.204;2023-02-24T06:42:15;98859.53;;;6.69;100.00
22283;BME280;11310;51.528;21.204;2023-02-24T06:44:43;98861.31;;;6.68;100.00
22283;BME280;11310;51.528;21.204;2023-02-24T06:47:13;98860.53;;;6.66;100.00
22283;BME280;11310;51.528;21.204;2023-02-24T06:49:42;98852.03;;;6.63;100.00
22283;BME280;11310;51.528;21.204;2023-02-24T06:52:11;98855.50;;;6.63;100.00
22283;BME280;11310;51.528;21.204;2023-02-24T06:54:46;98850.34;;;6.62;100.00
22283;BME280;11310;51.528;21.204;2023-02-24T06:57:17;98852.88;;;6.63;100.00
22283;BME280;11310;51.528;21.204;2023-02-24T06:59:46;98848.50;;;6.64;100.00
22283;BME280;11310;51.528;21.204;2023-02-24T07:02:15;98852.88;;;6.63;100.00
22283;BME280;11310;51.528;21.204;2023-02-24T07:04:44;98843.28;;;6.64;100.00
22283;BME280;11310;51.528;21.204;2023-02-24T07:07:13;98846.75;;;6.64;100.00
22283;BME280;11310;51.528;21.204;2023-02-24T07:09:43;98844.97;;;6.65;100.00
22283;BME280;11310;51.528;21.204;2023-02-24T07:12:11;98846.69;;;6.66;100.00
22283;BME280;11310;51.528;21.204;2023-02-24T07:14:48;98842.28;;;6.66;100.00
22283;BME280;11310;51.528;21.204;2023-02-24T07:17:17;98843.91;;;6.69;100.00
22283;BME280;11310;51.528;21.204;2023-02-24T07:19:45;98838.63;;;6.70;100.00
22283;BME280;11310;51.528;21.204;2023-02-24T07:22:14;98844.69;;;6.71;100.00
22283;BME280;11310;51.528;21.204;2023-02-24T07:24:44;98841.16;;;6.72;100.00
22283;BME280;11310;51.528;21.204;2023-02-24T07:27:14;98837.63;;;6.73;100.00
22283;BME280;11310;51.528;21.204;2023-02-24T07:29:50;98836.69;;;6.74;100.00
22283;BME280;11310;51.528;21.204;2023-02-24T07:32:20;98826.19;;;6.75;100.00
22283;BME280;11310;51.528;21.204;2023-02-24T07:34:49;98830.41;;;6.78;100.00
22283;BME280;11310;51.528;21.204;2023-02-24T07:37:18;98827.75;;;6.79;100.00
22283;BME280;11310;51.528;21.204;2023-02-24T07:39:48;98821.53;;;6.82;100.00
22283;BME280;11310;51.528;21.204;2023-02-24T07:42:17;98826.59;;;6.85;100.00
22283;BME280;11310;51.528;21.204;2023-02-24T07:44:54;98824.00;;;6.85;100.00
22283;BME280;11310;51.528;21.204;2023-02-24T07:47:23;98817.72;;;6.89;100.00
22283;BME280;11310;51.528;21.204;2023-02-24T07:49:52;98821.06;;;6.91;100.00
22283;BME280;11310;51.528;21.204;2023-02-24T07:52:21;98814.94;;;6.92;100.00
22283;BME280;11310;51.528;21.204;2023-02-24T07:54:51;98812.25;;;6.93;100.00
22283;BME280;11310;51.528;21.204;2023-02-24T07:57:22;98812.03;;;6.98;100.00
22283;BME280;11310;51.528;21.204;2023-02-24T07:59:51;98806.63;;;7.01;100.00
22283;BME280;11310;51.528;21.204;2023-02-24T08:02:21;98806.63;;;7.01;100.00
22283;BME280;11310;51.528;21.204;2023-02-24T08:04:51;98801.28;;;7.04;100.00
22283;BME280;11310;51.528;21.204;2023-02-24T08:07:22;98802.13;;;7.04;100.00
22283;BME280;11310;51.528;21.204;2023-02-24T08:12:46;98791.59;;;7.06;100.00
22283;BME280;11310;51.528;21.204;2023-02-24T08:15:14;98798.34;;;7.10;100.00
22283;BME280;11310;51.528;21.204;2023-02-24T08:17:51;98792.06;;;7.14;100.00
22283;BME280;11310;51.528;21.204;2023-02-24T08:20:24;98788.38;;;7.18;100.00
22283;BME280;11310;51.528;21.204;2023-02-24T08:22:54;98794.34;;;7.20;100.00
22283;BME280;11310;51.528;21.204;2023-02-24T08:25:24;98787.22;;;7.23;100.00
22283;BME280;11310;51.528;21.204;2023-02-24T08:28:05;98785.44;;;7.24;100.00
22283;BME280;11310;51.528;21.204;2023-02-24T08:30:39;98781.91;;;7.25;100.00
22283;BME280;11310;51.528;21.204;2023-02-24T08:33:17;98778.31;;;7.27;100.00
22283;BME280;11310;51.528;21.204;2023-02-24T08:35:50;98778.22;;;7.29;100.00
22283;BME280;11310;51.528;21.204;2023-02-24T08:38:20;98770.31;;;7.30;100.00
22283;BME280;11310;51.528;21.204;2023-02-24T08:40:52;98772.84;;;7.32;100.00
22283;BME280;11310;51.528;21.204;2023-02-24T08:43:27;98764.78;;;7.36;100.00
22283;BME280;11310;51.528;21.204;2023-02-24T08:46:04;98764.53;;;7.41;100.00
22283;BME280;11310;51.528;21.204;2023-02-24T08:48:41;98762.66;;;7.43;100.00
22283;BME280;11310;51.528;21.204;2023-02-24T08:51:13;98758.38;;;7.42;100.00
22283;BME280;11310;51.528;21.204;2023-02-24T08:53:44;98751.47;;;7.41;100.00
22283;BME280;11310;51.528;21.204;2023-02-24T08:56:14;98753.34;;;7.39;100.00
22283;BME280;11310;51.528;21.204;2023-02-24T08:58:53;98744.66;;;7.38;100.00
22283;BME280;11310;51.528;21.204;2023-02-24T09:01:26;98745.53;;;7.39;100.00
22283;BME280;11310;51.528;21.204;2023-02-24T09:04:03;98743.66;;;7.41;100.00
22283;BME280;11310;51.528;21.204;2023-02-24T09:10:12;98743.66;;;7.41;100.00
22283;BME280;11310;51.528;21.204;2023-02-24T09:12:44;98746.34;;;7.39;100.00
22283;BME280;11310;51.528;21.204;2023-02-24T09:15:15;98744.66;;;7.38;100.00
22283;BME280;11310;51.528;21.204;2023-02-24T09:17:44;98736.91;;;7.37;100.00
22283;BME280;11310;51.528;21.204;2023-02-24T09:20:27;98730.09;;;7.34;100.00
22283;BME280;11310;51.528;21.204;2023-02-24T09:23:15;98730.09;;;7.34;100.00
22283;BME280;11310;51.528;21.204;2023-02-24T09:28:18;98724.22;;;7.31;100.00
22283;BME280;11310;51.528;21.204;2023-02-24T09:30:52;98721.41;;;7.34;100.00
22283;BME280;11310;51.528;21.204;2023-02-24T09:33:23;98722.94;;;7.38;100.00
22283;BME280;11310;51.528;21.204;2023-02-24T09:35:55;98720.94;;;7.43;100.00
22283;BME280;11310;51.528;21.204;2023-02-24T09:38:36;98708.50;;;7.48;100.00
22283;BME280;11310;51.528;21.204;2023-02-24T09:41:32;98703.44;;;7.60;100.00
22283;BME280;11310;51.528;21.204;2023-02-24T09:44:27;98706.13;;;7.74;100.00
22283;BME280;11310;51.528;21.204;2023-02-24T09:47:11;98699.38;;;7.86;100.00
22283;BME280;11310;51.528;21.204;2023-02-24T09:49:49;98701.41;;;7.96;100.00
22283;BME280;11310;51.528;21.204;2023-02-24T09:52:25;98702.06;;;8.00;100.00
22283;BME280;11310;51.528;21.204;2023-02-24T09:55:15;98698.16;;;8.07;100.00
22283;BME280;11310;51.528;21.204;2023-02-24T09:57:57;98701.16;;;8.15;100.00
22283;BME280;11310;51.528;21.204;2023-02-24T10:00:51;98694.81;;;8.20;100.00
22283;BME280;11310;51.528;21.204;2023-02-24T10:03:24;98696.31;;;8.24;100.00
22283;BME280;11310;51.528;21.204;2023-02-24T10:06:14;98695.28;;;8.27;100.00
22283;BME280;11310;51.528;21.204;2023-02-24T10:08:53;98691.56;;;8.31;100.00
22283;BME280;11310;51.528;21.204;2023-02-24T10:11:25;98688.03;;;8.32;100.00
22283;BME280;11310;51.528;21.204;2023-02-24T10:14:02;98687.84;;;8.35;100.00
22283;BME280;11310;51.528;21.204;2023-02-24T10:16:37;98685.25;;;8.35;100.00
22283;BME280;11310;51.528;21.204;2023-02-24T10:19:22;98679.09;;;8.36;100.00
22283;BME280;11310;51.528;21.204;2023-02-24T10:21:55;98672.06;;;8.36;100.00
22283;BME280;11310;51.528;21.204;2023-02-24T10:24:33;98667.69;;;8.37;100.00
22283;BME280;11310;51.528;21.204;2023-02-24T10:27:09;98670.13;;;8.40;100.00
22283;BME280;11310;51.528;21.204;2023-02-24T10:29:51;98662.28;;;8.40;100.00
22283;BME280;11310;51.528;21.204;2023-02-24T10:32:33;98656.38;;;8.36;100.00
22283;BME280;11310;51.528;21.204;2023-02-24T10:35:12;98648.75;;;8.33;100.00
22283;BME280;11310;51.528;21.204;2023-02-24T10:37:43;98653.22;;;8.31;100.00
22283;BME280;11310;51.528;21.204;2023-02-24T10:40:13;98653.28;;;8.30;100.00
22283;BME280;11310;51.528;21.204;2023-02-24T10:43:02;98648.25;;;8.27;100.00
22283;BME280;11310;51.528;21.204;2023-02-24T10:45:31;98639.66;;;8.25;100.00
22283;BME280;11310;51.528;21.204;2023-02-24T10:48:16;98622.31;;;8.24;100.00
22283;BME280;11310;51.528;21.204;2023-02-24T10:51:12;98624.75;;;8.27;100.00
22283;BME280;11310;51.528;21.204;2023-02-24T10:53:47;98621.94;;;8.30;100.00
22283;BME280;11310;51.528;21.204;2023-02-24T10:56:40;98613.19;;;8.31;100.00
22283;BME280;11310;51.528;21.204;2023-02-24T10:59:13;98614.03;;;8.31;100.00
22283;BME280;11310;51.528;21.204;2023-02-24T11:02:16;98608.72;;;8.33;100.00
22283;BME280;11310;51.528;21.204;2023-02-24T11:04:59;98599.38;;;8.29;100.00
22283;BME280;11310;51.528;21.204;2023-02-24T11:08:04;98611.50;;;8.30;100.00
22283;BME280;11310;51.528;21.204;2023-02-24T11:10:39;98607.50;;;8.24;100.00
22283;BME280;11310;51.528;21.204;2023-02-24T11:13:19;98601.59;;;8.21;100.00
22283;BME280;11310;51.528;21.204;2023-02-24T11:16:07;98593.16;;;8.16;100.00
22283;BME280;11310;51.528;21.204;2023-02-24T11:18:54;98592.59;;;8.11;100.00
22283;BME280;11310;51.528;21.204;2023-02-24T11:21:25;98586.53;;;8.10;100.00
22283;BME280;11310;51.528;21.204;2023-02-24T11:23:56;98588.47;;;8.07;100.00
22283;BME280;11310;51.528;21.204;2023-02-24T11:26:38;98587.75;;;8.05;100.00
22283;BME280;11310;51.528;21.204;2023-02-24T11:29:19;98579.06;;;8.04;100.00
22283;BME280;11310;51.528;21.204;2023-02-24T11:32:01;98577.38;;;8.03;100.00
22283;BME280;11310;51.528;21.204;2023-02-24T11:34:42;98574.03;;;8.01;100.00
22283;BME280;11310;51.528;21.204;2023-02-24T11:37:28;98577.47;;;8.02;100.00
22283;BME280;11310;51.528;21.204;2023-02-24T11:40:04;98572.34;;;8.00;100.00
22283;BME280;11310;51.528;21.204;2023-02-24T11:42:38;98562.91;;;7.98;100.00
22283;BME280;11310;51.528;21.204;2023-02-24T11:45:14;98556.84;;;7.97;100.00
22283;BME280;11310;51.528;21.204;2023-02-24T11:47:52;98561.22;;;7.97;100.00
22283;BME280;11310;51.528;21.204;2023-02-24T11:50:29;98555.84;;;8.00;100.00
22283;BME280;11310;51.528;21.204;2023-02-24T11:53:04;98562.56;;;8.04;100.00
22283;BME280;11310;51.528;21.204;2023-02-24T11:55:41;98565.09;;;8.05;100.00
22283;BME280;11310;51.528;21.204;2023-02-24T11:58:15;98558.63;;;8.11;100.00
22283;BME280;11310;51.528;21.204;2023-02-24T12:00:51;98553.91;;;8.17;100.00
22283;BME280;11310;51.528;21.204;2023-02-24T12:03:27;98551.69;;;8.25;100.00
22283;BME280;11310;51.528;21.204;2023-02-24T12:06:07;98544.97;;;8.35;100.00
22283;BME280;11310;51.528;21.204;2023-02-24T12:08:40;98541.00;;;8.44;100.00
22283;BME280;11310;51.528;21.204;2023-02-24T12:11:17;98533.50;;;8.52;100.00
22283;BME280;11310;51.528;21.204;2023-02-24T12:13:51;98530.88;;;8.52;100.00
22283;BME280;11310;51.528;21.204;2023-02-24T12:16:28;98531.66;;;8.54;100.00
22283;BME280;11310;51.528;21.204;2023-02-24T12:19:03;98528.09;;;8.55;100.00
22283;BME280;11310;51.528;21.204;2023-02-24T12:21:36;98521.00;;;8.57;100.00
22283;BME280;11310;51.528;21.204;2023-02-24T12:24:11;98525.00;;;8.62;100.00
22283;BME280;11310;51.528;21.204;2023-02-24T12:26:42;98515.31;;;8.64;100.00
22283;BME280;11310;51.528;21.204;2023-02-24T12:29:36;98505.69;;;8.65;100.00
22283;BME280;11310;51.528;21.204;2023-02-24T12:32:18;98504.72;;;8.66;100.00
22283;BME280;11310;51.528;21.204;2023-02-24T12:34:55;98505.41;;;8.69;100.00
22283;BME280;11310;51.528;21.204;2023-02-24T12:37:50;98503.53;;;8.71;100.00
22283;BME280;11310;51.528;21.204;2023-02-24T12:40:38;98494.09;;;8.69;100.00
22283;BME280;11310;51.528;21.204;2023-02-24T12:43:21;98496.88;;;8.66;100.00
22283;BME280;11310;51.528;21.204;2023-02-24T12:45:57;98498.00;;;8.62;100.00
22283;BME280;11310;51.528;21.204;2023-02-24T12:48:50;98491.50;;;8.55;100.00
22283;BME280;11310;51.528;21.204;2023-02-24T12:51:26;98494.59;;;8.47;100.00
22283;BME280;11310;51.528;21.204;2023-02-24T12:54:00;98482.75;;;8.42;100.00
22283;BME280;11310;51.528;21.204;2023-02-24T12:56:39;98482.19;;;8.37;100.00
22283;BME280;11310;51.528;21.204;2023-02-24T12:59:12;98479.03;;;8.32;100.00
22283;BME280;11310;51.528;21.204;2023-02-24T13:01:47;98485.28;;;8.29;100.00
22283;BME280;11310;51.528;21.204;2023-02-24T13:04:31;98476.13;;;8.22;100.00
22283;BME280;11310;51.528;21.204;2023-02-24T13:07:14;98472.84;;;8.19;100.00
22283;BME280;11310;51.528;21.204;2023-02-24T13:10:00;98473.88;;;8.16;100.00
22283;BME280;11310;51.528;21.204;2023-02-24T13:12:37;98470.63;;;8.13;100.00
22283;BME280;11310;51.528;21.204;2023-02-24T13:15:19;98467.31;;;8.09;100.00
22283;BME280;11310;51.528;21.204;2023-02-24T13:17:51;98462.97;;;8.10;100.00
22283;BME280;11310;51.528;21.204;2023-02-24T13:20:27;98459.63;;;8.08;100.00
22283;BME280;11310;51.528;21.204;2023-02-24T13:22:58;98463.13;;;8.07;100.00
22283;BME280;11310;51.528;21.204;2023-02-24T13:25:30;98457.19;;;8.05;100.00
22283;BME280;11310;51.528;21.204;2023-02-24T13:28:03;98455.50;;;8.04;100.00
22283;BME280;11310;51.528;21.204;2023-02-24T13:30:36;98452.13;;;8.02;100.00
22283;BME280;11310;51.528;21.204;2023-02-24T13:33:20;98443.66;;;7.98;100.00
22283;BME280;11310;51.528;21.204;2023-02-24T13:35:51;98448.03;;;7.98;100.00
22283;BME280;11310;51.528;21.204;2023-02-24T13:38:33;98444.69;;;7.96;100.00
22283;BME280;11310;51.528;21.204;2023-02-24T13:41:17;98449.16;;;7.94;100.00